Time;durP1;ratioP1;P1;durP2;ratioP2;P2;SDS_P1;SDS_P2;PMS_P1;PMS_P2;Temp;Humidity;BMP_temperature;BMP_pressure;BME280_temperature;BME280_humidity;BME280_pressure;Samples;Min_cycle;Max_cycle;Signal;HPM_P1;HPM_P2
2022/12/20 00:01:14;;;;;;;15.50;9.00;;;;;;;3.60;100.00;99821.56;4979814;28;20044;-61
2022/12/20 00:03:40;;;;;;;12.80;8.30;;;;;;;3.68;100.00;99829.75;4960299;28;20081;-61
2022/12/20 00:06:06;;;;;;;14.57;8.60;;;;;;;3.65;100.00;99817.03;4975750;28;20432;-61
2022/12/20 00:08:33;;;;;;;12.00;7.68;;;;;;;3.34;100.00;99771.31;4988997;28;20026;-62
2022/12/20 00:11:00;;;;;;;13.88;8.35;;;;;;;3.68;100.00;99810.91;4972286;28;20555;-60
2022/12/20 00:13:25;;;;;;;11.52;7.97;;;;;;;3.46;100.00;99776.72;4996505;28;20033;-61
2022/12/20 00:16:09;;;;;;;13.15;8.13;;;;;;;3.60;100.00;99812.09;4997688;28;20507;-61
2022/12/20 00:18:35;;;;;;;11.63;7.75;;;;;;;3.40;100.00;99774.44;4976945;28;20034;-62
2022/12/20 00:21:02;;;;;;;10.98;7.32;;;;;;;3.69;100.00;99800.56;4977724;28;20664;-61
2022/12/20 00:23:30;;;;;;;11.68;8.10;;;;;;;3.64;100.00;99808.47;4981591;28;20073;-64
2022/12/20 00:26:02;;;;;;;13.70;8.18;;;;;;;3.62;100.00;99806.91;4978642;28;20038;-61
2022/12/20 00:28:27;;;;;;;15.35;7.65;;;;;;;3.57;100.00;99799.38;4979006;28;20105;-61
2022/12/20 00:30:54;;;;;;;14.00;7.63;;;;;;;3.40;100.00;99760.78;4995888;28;20038;-63
2022/12/20 00:33:19;;;;;;;13.98;7.15;;;;;;;3.59;100.00;99782.13;4982254;28;20117;-61
2022/12/20 00:35:45;;;;;;;10.77;7.38;;;;;;;3.63;100.00;99793.13;4967393;28;20038;-62
2022/12/20 00:38:10;;;;;;;12.63;6.90;;;;;;;3.63;100.00;99799.13;4970010;28;20507;-62
2022/12/20 00:40:35;;;;;;;10.63;7.15;;;;;;;3.69;100.00;99797.13;4991481;28;20104;-61
2022/12/20 00:43:01;;;;;;;11.15;6.85;;;;;;;3.62;100.00;99784.56;4981861;28;20455;-63
2022/12/20 00:45:26;;;;;;;12.90;8.05;;;;;;;3.69;100.00;99787.69;4982927;28;20065;-60
2022/12/20 00:47:52;;;;;;;10.02;6.65;;;;;;;3.64;100.00;99769.91;5016271;28;20048;-61
2022/12/20 00:50:17;;;;;;;11.38;7.03;;;;;;;3.64;100.00;99784.50;5016787;28;20068;-61
2022/12/20 00:52:43;;;;;;;13.45;7.53;;;;;;;3.65;100.00;99779.28;4984249;28;20507;-61
2022/12/20 00:55:08;;;;;;;12.20;7.63;;;;;;;3.62;100.00;99782.00;4986854;28;20034;-63
2022/12/20 00:57:34;;;;;;;10.82;7.25;;;;;;;3.70;100.00;99778.22;5001842;28;20037;-62
2022/12/20 00:59:59;;;;;;;11.15;6.57;;;;;;;3.73;100.00;99785.81;4980394;28;20039;-64
2022/12/20 01:02:25;;;;;;;13.75;7.10;;;;;;;3.74;100.00;99772.03;4977660;28;20077;-62
2022/12/20 01:04:50;;;;;;;11.50;7.40;;;;;;;3.86;100.00;99781.75;4981916;28;20385;-63
2022/12/20 01:07:16;;;;;;;12.40;7.55;;;;;;;3.89;100.00;99775.59;4994990;28;20034;-63
2022/12/20 01:09:41;;;;;;;12.02;7.78;;;;;;;3.77;100.00;99771.91;4998743;28;20041;-61
2022/12/20 01:12:07;;;;;;;14.60;7.75;;;;;;;3.72;100.00;99761.81;4982167;28;20727;-63
2022/12/20 01:14:32;;;;;;;11.80;7.70;;;;;;;3.84;100.00;99773.28;4994229;28;20449;-61
2022/12/20 01:16:58;;;;;;;12.68;7.50;;;;;;;3.60;100.00;99726.41;4966820;28;20030;-62
2022/12/20 01:19:24;;;;;;;11.85;7.18;;;;;;;3.84;100.00;99781.00;4985587;28;20026;-62
2022/12/20 01:21:49;;;;;;;11.38;7.32;;;;;;;3.75;100.00;99776.28;4966146;28;20497;-61
2022/12/20 01:24:16;;;;;;;11.05;7.05;;;;;;;3.82;100.00;99785.38;4989028;28;20049;-61
2022/12/20 01:26:42;;;;;;;11.75;7.47;;;;;;;3.81;100.00;99789.66;4967009;28;20057;-62
2022/12/20 01:29:08;;;;;;;13.98;6.75;;;;;;;3.50;100.00;99733.69;4982522;28;20026;-61
2022/12/20 01:31:33;;;;;;;10.90;6.78;;;;;;;3.78;100.00;99778.72;4982597;28;20038;-63
2022/12/20 01:33:59;;;;;;;11.23;7.20;;;;;;;3.63;100.00;99785.41;4985129;28;20437;-64
2022/12/20 01:36:28;;;;;;;12.00;7.28;;;;;;;3.66;100.00;99780.13;4974310;28;20090;-63
2022/12/20 01:39:05;;;;;;;12.38;6.68;;;;;;;3.59;100.00;99781.31;4980126;28;20038;-62
2022/12/20 01:41:31;;;;;;;11.68;7.60;;;;;;;3.50;100.00;99754.28;4996891;28;20030;-63
2022/12/20 01:44:23;;;;;;;11.20;7.20;;;;;;;3.61;100.00;99771.78;4995482;28;20022;-61
2022/12/20 01:46:49;;;;;;;10.88;7.20;;;;;;;3.57;100.00;99763.38;4978969;28;20064;-61
2022/12/20 01:49:24;;;;;;;12.15;7.55;;;;;;;3.61;100.00;99767.50;4998921;28;20033;-63
2022/12/20 01:51:54;;;;;;;10.77;7.25;;;;;;;3.67;100.00;99771.50;4981922;28;20038;-63
2022/12/20 01:54:22;;;;;;;;;;;;;;;3.69;100.00;99774.84;4998397;28;20587;-61
2022/12/20 01:57:00;;;;;;;11.50;6.25;;;;;;;3.57;100.00;99765.94;4977005;28;19917;-63
2022/12/20 01:59:26;;;;;;;11.93;7.43;;;;;;;3.32;100.00;99698.56;4994045;28;20037;-62
2022/12/20 02:01:51;;;;;;;12.05;6.82;;;;;;;3.63;100.00;99742.53;4980707;28;20294;-62
2022/12/20 02:04:17;;;;;;;10.70;6.75;;;;;;;3.63;100.00;99752.81;4965892;28;20038;-62
2022/12/20 02:06:42;;;;;;;10.80;6.65;;;;;;;3.70;100.00;99745.63;4968077;28;20061;-65
2022/12/20 02:09:08;;;;;;;10.75;6.53;;;;;;;3.69;100.00;99740.53;4965206;28;20062;-62
2022/12/20 02:11:33;;;;;;;10.98;7.40;;;;;;;3.68;100.00;99742.28;4981935;28;20030;-62
2022/12/20 02:14:13;;;;;;;11.05;6.53;;;;;;;3.73;100.00;99753.19;4983849;28;20042;-62
2022/12/20 02:17:00;;;;;;;10.90;6.97;;;;;;;3.77;100.00;99751.31;4997967;28;20060;-61
2022/12/20 02:19:31;;;;;;;13.70;7.30;;;;;;;3.18;100.00;99647.84;4981013;28;20500;-62
2022/12/20 02:22:14;;;;;;;11.60;7.10;;;;;;;3.72;100.00;99750.69;4981303;28;20084;-64
2022/12/20 02:25:07;;;;;;;11.93;7.07;;;;;;;3.71;100.00;99744.72;4982546;28;20112;-61
2022/12/20 02:27:53;;;;;;;12.00;7.32;;;;;;;3.79;100.00;99731.50;4979641;28;20022;-60
2022/12/20 02:30:21;;;;;;;12.40;7.55;;;;;;;3.80;100.00;99731.41;4987413;28;20072;-63
2022/12/20 02:32:57;;;;;;;11.60;6.68;;;;;;;3.81;100.00;99721.94;4982021;28;20413;-62
2022/12/20 02:35:26;;;;;;;10.10;6.50;;;;;;;3.80;100.00;99730.59;5013786;28;20117;-62
2022/12/20 02:37:54;;;;;;;8.15;5.20;;;;;;;3.46;100.00;99670.47;4963771;28;20034;-61
2022/12/20 02:40:40;;;;;;;11.63;6.80;;;;;;;3.83;100.00;99720.13;4980598;28;20133;-62
2022/12/20 02:45:14;;;;;;;10.82;6.57;;;;;;;3.63;100.00;99695.38;5003179;28;20076;-61
2022/12/20 02:45:54;;;;;;;8.73;4.95;;;;;;;3.80;100.00;99705.69;4993008;28;20081;-63
2022/12/20 02:48:20;;;;;;;10.30;5.68;;;;;;;3.87;100.00;99695.94;5000773;28;20407;-62
2022/12/20 02:50:49;;;;;;;10.40;5.07;;;;;;;3.84;98.62;99701.22;4999109;28;20523;-61
2022/12/20 02:53:15;;;;;;;10.15;5.80;;;;;;;3.81;97.58;99702.19;5012338;28;20037;-61
2022/12/20 02:55:47;;;;;;;9.02;5.75;;;;;;;3.87;96.75;99707.94;4988592;28;20034;-62
2022/12/20 02:58:20;;;;;;;10.07;5.38;;;;;;;3.84;96.19;99704.63;4985464;28;20046;-61
2022/12/20 03:00:47;;;;;;;8.65;5.50;;;;;;;3.81;96.37;99696.22;4980809;28;20125;-64
2022/12/20 03:03:22;;;;;;;9.77;5.50;;;;;;;3.81;97.00;99680.78;4993967;28;20046;-60
2022/12/20 03:05:57;;;;;;;8.88;5.07;;;;;;;3.83;96.66;99686.69;4979660;28;20081;-60
2022/12/20 03:08:23;;;;;;;8.45;4.95;;;;;;;3.86;96.65;99694.25;4998358;28;20061;-62
2022/12/20 03:10:49;;;;;;;9.55;5.38;;;;;;;3.86;95.88;99683.97;4965222;28;20030;-61
2022/12/20 03:13:15;;;;;;;8.52;4.60;;;;;;;3.90;95.04;99684.66;4978818;28;20126;-62
2022/12/20 03:15:41;;;;;;;8.77;5.50;;;;;;;3.89;96.41;99676.09;4988192;28;20112;-61
2022/12/20 03:18:06;;;;;;;10.20;5.20;;;;;;;3.91;98.07;99686.34;4961482;28;20042;-62
2022/12/20 03:20:32;;;;;;;6.80;4.03;;;;;;;3.66;98.69;99631.75;4989593;28;20042;-62
2022/12/20 03:22:57;;;;;;;9.80;5.82;;;;;;;3.88;98.08;99671.84;4977352;28;20026;-61
2022/12/20 03:25:23;;;;;;;9.90;5.53;;;;;;;3.97;98.61;99686.84;4996182;28;20034;-64
2022/12/20 03:27:48;;;;;;;10.05;5.88;;;;;;;3.92;98.54;99683.66;4996764;28;20069;-62
2022/12/20 03:30:14;;;;;;;10.40;5.80;;;;;;;3.97;98.61;99680.88;4982118;28;20504;-63
2022/12/20 03:32:39;;;;;;;10.40;5.90;;;;;;;4.02;98.29;99677.16;4979080;28;20038;-63
2022/12/20 03:35:05;;;;;;;9.93;6.13;;;;;;;4.03;98.38;99675.41;4973270;28;20042;-63
2022/12/20 03:37:31;;;;;;;8.35;5.38;;;;;;;4.07;100.00;99676.06;4979193;28;20075;-60
2022/12/20 03:39:56;;;;;;;9.07;5.38;;;;;;;4.11;100.00;99682.75;4977294;28;20030;-62
2022/12/20 03:42:22;;;;;;;10.93;6.22;;;;;;;4.12;100.00;99674.13;5004900;28;20085;-61
2022/12/20 03:44:47;;;;;;;9.65;5.65;;;;;;;4.15;99.30;99673.97;4992654;28;20074;-61
2022/12/20 03:47:13;;;;;;;10.23;5.75;;;;;;;4.16;100.00;99670.47;4978057;28;20038;-62
2022/12/20 03:49:38;;;;;;;10.35;6.40;;;;;;;4.04;100.00;99661.63;4968118;28;20062;-61
2022/12/20 03:52:04;;;;;;;10.80;6.70;;;;;;;4.09;100.00;99658.81;4997236;28;20409;-62
2022/12/20 03:54:29;;;;;;;10.02;5.97;;;;;;;3.98;100.00;99652.50;4978841;28;20740;-60
2022/12/20 03:56:55;;;;;;;9.48;6.13;;;;;;;4.03;100.00;99659.97;4982714;28;20069;-63
2022/12/20 03:59:20;;;;;;;9.50;5.93;;;;;;;3.98;100.00;99654.19;4976891;28;20394;-63
2022/12/20 04:01:46;;;;;;;10.02;6.13;;;;;;;4.02;100.00;99658.31;4975231;28;20672;-61
2022/12/20 04:04:12;;;;;;;10.13;6.57;;;;;;;4.03;100.00;99653.09;4978631;28;20130;-62
2022/12/20 04:06:38;;;;;;;10.68;6.28;;;;;;;3.89;100.00;99628.94;4989321;28;20113;-62
2022/12/20 04:09:04;;;;;;;10.50;6.55;;;;;;;4.07;100.00;99668.34;4979021;28;20132;-60
2022/12/20 04:11:30;;;;;;;10.95;6.45;;;;;;;4.03;100.00;99665.09;4957483;28;20042;-61
2022/12/20 04:13:56;;;;;;;10.02;5.88;;;;;;;4.14;100.00;99662.00;4963656;28;20041;-60
2022/12/20 04:16:24;;;;;;;9.88;6.25;;;;;;;4.07;100.00;99663.22;4997442;28;20445;-62
2022/12/20 04:18:50;;;;;;;9.73;5.60;;;;;;;4.15;100.00;99672.22;4928636;28;1399344;-60
2022/12/20 04:21:21;;;;;;;12.18;6.55;;;;;;;4.13;100.00;99662.91;4979626;28;20034;-62
2022/12/20 04:23:46;;;;;;;11.15;6.65;;;;;;;4.23;100.00;99657.22;4972260;28;20037;-64
2022/12/20 04:26:12;;;;;;;9.88;5.95;;;;;;;4.22;100.00;99663.28;4970631;28;20116;-62
2022/12/20 04:28:37;;;;;;;9.93;6.65;;;;;;;4.32;100.00;99660.22;4999303;28;20540;-59
2022/12/20 04:31:03;;;;;;;11.50;7.45;;;;;;;4.08;100.00;99618.56;4977550;28;20397;-60
2022/12/20 04:33:29;;;;;;;9.95;6.78;;;;;;;4.38;100.00;99649.59;4964862;28;20716;-60
2022/12/20 04:35:54;;;;;;;11.48;6.15;;;;;;;4.28;100.00;99643.28;4997534;28;20062;-61
2022/12/20 04:38:20;;;;;;;11.50;6.10;;;;;;;4.34;100.00;99655.81;4980618;28;20038;-62
2022/12/20 04:40:53;;;;;;;10.77;6.75;;;;;;;4.27;100.00;99652.75;4977265;28;20080;-60
2022/12/20 04:43:20;;;;;;;9.68;5.72;;;;;;;4.01;100.00;99593.13;4982574;28;20240;-62
2022/12/20 04:45:51;;;;;;;11.52;7.07;;;;;;;4.26;100.00;99632.22;4994205;28;20029;-61
2022/12/20 04:48:17;;;;;;;11.32;6.93;;;;;;;4.29;100.00;99629.47;4964760;28;20125;-60
2022/12/20 04:50:47;;;;;;;11.00;7.30;;;;;;;4.07;100.00;99575.69;4980377;28;20038;-60
2022/12/20 04:55:57;;;;;;;10.35;6.95;;;;;;;4.21;100.00;99625.56;4980409;28;20037;-60
2022/12/20 04:58:22;;;;;;;9.80;6.10;;;;;;;4.20;100.00;99621.34;4973087;28;20034;-64
2022/12/20 05:00:48;;;;;;;10.93;7.15;;;;;;;4.18;100.00;99622.31;4978879;28;20033;-60
2022/12/20 05:03:13;;;;;;;11.43;7.10;;;;;;;3.90;100.00;99558.56;4980336;28;20077;-62
2022/12/20 05:05:39;;;;;;;14.48;7.20;;;;;;;4.16;100.00;99608.69;4977036;28;20517;-63
2022/12/20 05:08:04;;;;;;;9.55;6.43;;;;;;;4.18;100.00;99612.00;4981778;28;20618;-63
2022/12/20 05:10:29;;;;;;;12.75;6.97;;;;;;;4.25;100.00;99615.94;4976352;28;20564;-60
2022/12/20 05:12:55;;;;;;;11.25;7.25;;;;;;;4.20;100.00;99628.22;4997823;28;20122;-61
2022/12/20 05:15:20;;;;;;;10.68;6.85;;;;;;;4.24;100.00;99630.56;4982187;28;20032;-61
2022/12/20 05:17:46;;;;;;;10.02;6.97;;;;;;;4.25;100.00;99626.22;4974934;28;20858;-62
2022/12/20 05:20:11;;;;;;;11.02;7.38;;;;;;;4.30;100.00;99620.84;4978179;28;20469;-61
2022/12/20 05:28:05;;;;;;;10.73;6.47;;;;;;;4.29;100.00;99620.03;5008110;28;20081;-62
2022/12/20 05:30:30;;;;;;;9.70;6.28;;;;;;;4.29;100.00;99620.03;4967451;28;20069;-62
2022/12/20 05:32:56;;;;;;;10.23;6.15;;;;;;;4.34;100.00;99623.16;4996502;28;20069;-59
2022/12/20 05:35:21;;;;;;;9.98;6.03;;;;;;;4.31;100.00;99623.34;4983854;28;20114;-64
2022/12/20 05:37:47;;;;;;;9.82;6.20;;;;;;;4.32;100.00;99613.88;4982490;28;20088;-62
2022/12/20 05:40:12;;;;;;;9.45;5.90;;;;;;;4.29;100.00;99604.56;4979766;28;20038;-61
2022/12/20 05:42:39;;;;;;;10.13;5.65;;;;;;;4.28;100.00;99613.19;4998834;28;20034;-63
2022/12/20 05:45:05;;;;;;;11.23;6.40;;;;;;;4.18;100.00;99610.28;5011358;28;20035;-63
2022/12/20 05:47:32;;;;;;;10.75;6.28;;;;;;;4.16;100.00;99614.69;4997000;28;20053;-62
2022/12/20 05:49:59;;;;;;;9.05;5.90;;;;;;;4.21;100.00;99622.97;4981422;28;20038;-63
2022/12/20 05:52:24;;;;;;;11.23;6.25;;;;;;;4.01;100.00;99585.41;4967869;28;20041;-62
2022/12/20 05:54:50;;;;;;;10.68;6.25;;;;;;;4.22;100.00;99616.94;4988868;28;20023;-64
2022/12/20 05:57:16;;;;;;;10.40;6.43;;;;;;;4.19;100.00;99618.84;4993796;28;20097;-61
2022/12/20 05:59:42;;;;;;;10.95;6.53;;;;;;;4.28;100.00;99622.69;4978804;28;20042;-62
2022/12/20 06:02:09;;;;;;;9.95;6.55;;;;;;;4.30;100.00;99631.16;4975658;28;20049;-62
2022/12/20 06:04:35;;;;;;;11.05;6.65;;;;;;;4.28;100.00;99626.06;4979945;28;20022;-63
2022/12/20 06:07:00;;;;;;;10.55;6.75;;;;;;;4.38;100.00;99623.84;4998403;28;20080;-63
2022/12/20 06:09:26;;;;;;;9.65;6.00;;;;;;;4.39;100.00;99635.81;4985422;28;20026;-61
2022/12/20 06:11:52;;;;;;;10.98;6.90;;;;;;;4.13;100.00;99591.66;4999301;28;20049;-61
2022/12/20 06:14:17;;;;;;;11.93;6.97;;;;;;;4.37;100.00;99628.16;4978450;28;20030;-63
2022/12/20 06:16:43;;;;;;;9.82;6.05;;;;;;;4.40;100.00;99622.03;4983664;28;20034;-61
2022/12/20 06:19:08;;;;;;;11.50;6.93;;;;;;;4.29;100.00;99624.31;4964309;28;20065;-61
2022/12/20 06:21:33;;;;;;;11.32;7.03;;;;;;;3.83;100.00;99571.75;4973803;28;20037;-64
2022/12/20 06:24:00;;;;;;;13.13;8.30;;;;;;;4.09;100.00;99617.63;4994929;28;20038;-61
2022/12/20 06:26:26;;;;;;;13.10;8.30;;;;;;;3.91;100.00;99566.22;4997966;28;20061;-63
2022/12/20 06:28:53;;;;;;;16.00;9.63;;;;;;;4.20;100.00;99618.75;5000045;28;20081;-65
2022/12/20 06:31:19;;;;;;;16.05;10.73;;;;;;;3.97;100.00;99614.78;4973930;28;20100;-61
2022/12/20 06:33:44;;;;;;;17.65;9.85;;;;;;;3.90;100.00;99616.00;4992583;28;20149;-62
2022/12/20 06:36:10;;;;;;;18.52;11.52;;;;;;;3.68;100.00;99576.84;4995567;28;20177;-63
2022/12/20 06:38:36;;;;;;;14.35;10.02;;;;;;;3.97;100.00;99621.69;4960688;28;20526;-63
2022/12/20 06:41:02;;;;;;;15.38;10.52;;;;;;;3.92;100.00;99621.91;4975599;28;20026;-60
2022/12/20 06:43:27;;;;;;;15.75;10.15;;;;;;;3.81;100.00;99619.84;4969368;28;20049;-60
2022/12/20 06:45:53;;;;;;;15.20;9.80;;;;;;;3.94;100.00;99645.84;4997451;28;20030;-61
2022/12/20 06:48:20;;;;;;;16.52;10.15;;;;;;;4.01;100.00;99643.75;4970916;28;20076;-62
2022/12/20 06:50:47;;;;;;;18.35;11.27;;;;;;;4.08;100.00;99644.28;4997426;28;20089;-63
2022/12/20 06:53:13;;;;;;;16.25;10.98;;;;;;;3.92;100.00;99624.47;4977492;28;20038;-63
2022/12/20 06:55:39;;;;;;;15.02;10.27;;;;;;;3.92;100.00;99642.47;4994411;28;20038;-61
2022/12/20 06:58:04;;;;;;;16.23;9.77;;;;;;;4.03;100.00;99629.94;4965605;28;20034;-61
2022/12/20 07:00:30;;;;;;;13.93;9.70;;;;;;;4.09;100.00;99636.50;4995247;28;20549;-62
2022/12/20 07:02:55;;;;;;;14.50;8.70;;;;;;;4.07;100.00;99638.31;4979514;28;20438;-61
2022/12/20 07:05:21;;;;;;;14.48;9.38;;;;;;;4.14;100.00;99638.81;4971510;28;20038;-65
2022/12/20 07:07:46;;;;;;;16.17;9.80;;;;;;;4.15;100.00;99627.63;4973987;28;20076;-64
2022/12/20 07:10:12;;;;;;;14.70;9.63;;;;;;;4.16;100.00;99631.84;4996009;28;20038;-63
2022/12/20 07:12:38;;;;;;;13.85;10.02;;;;;;;4.14;100.00;99629.34;4993456;28;20077;-61
2022/12/20 07:15:04;;;;;;;14.38;9.88;;;;;;;4.12;100.00;99622.63;4983708;28;20397;-61
2022/12/20 07:17:30;;;;;;;14.18;9.30;;;;;;;4.09;100.00;99623.63;4980189;28;20109;-62
2022/12/20 07:19:55;;;;;;;15.70;10.20;;;;;;;3.95;100.00;99624.31;4984125;28;20038;-63
2022/12/20 07:22:21;;;;;;;17.73;10.30;;;;;;;3.85;100.00;99623.13;4998434;28;20616;-61
2022/12/20 07:24:46;;;;;;;15.95;9.65;;;;;;;3.85;100.00;99605.97;4961041;28;20481;-64
2022/12/20 07:27:12;;;;;;;15.82;9.48;;;;;;;4.04;100.00;99623.03;4978692;28;20038;-62
2022/12/20 07:29:40;;;;;;;17.85;10.05;;;;;;;4.04;100.00;99631.56;4965733;28;20404;-63
2022/12/20 07:32:06;;;;;;;15.07;10.00;;;;;;;3.95;100.00;99639.75;4983962;28;20089;-61
2022/12/20 07:34:32;;;;;;;15.65;10.10;;;;;;;4.00;100.00;99636.97;4977813;28;20031;-62
2022/12/20 07:36:57;;;;;;;15.25;10.45;;;;;;;4.04;100.00;99644.44;4981075;28;20072;-60
2022/12/20 07:39:23;;;;;;;14.40;9.32;;;;;;;4.10;100.00;99642.47;4980233;28;20461;-63
2022/12/20 07:41:53;;;;;;;16.13;9.93;;;;;;;4.07;100.00;99645.19;4976202;28;20041;-60
2022/12/20 07:44:18;;;;;;;13.23;8.75;;;;;;;4.11;100.00;99668.13;4977321;28;20037;-64
2022/12/20 07:46:44;;;;;;;14.77;9.35;;;;;;;3.89;100.00;99611.78;4981281;28;20022;-61
2022/12/20 07:49:09;;;;;;;18.27;9.95;;;;;;;4.27;100.00;99662.19;4997260;28;20046;-60
2022/12/20 07:51:37;;;;;;;16.95;10.77;;;;;;;4.23;100.00;99653.78;4978813;28;20158;-61
2022/12/20 07:54:12;;;;;;;14.43;9.25;;;;;;;4.34;100.00;99668.69;5010866;28;20583;-63
2022/12/20 07:56:42;;;;;;;15.18;9.50;;;;;;;4.38;100.00;99659.88;4980103;28;20026;-61
2022/12/20 07:59:10;;;;;;;14.25;9.80;;;;;;;4.38;100.00;99653.03;4993237;28;20043;-62
2022/12/20 08:01:35;;;;;;;14.98;9.77;;;;;;;4.41;100.00;99660.56;4960716;28;20029;-62
2022/12/20 08:04:12;;;;;;;16.35;9.88;;;;;;;4.23;100.00;99640.91;4980956;28;20034;-61
2022/12/20 08:06:38;;;;;;;13.50;9.07;;;;;;;4.22;100.00;99650.41;4981440;28;20033;-60
2022/12/20 08:09:04;;;;;;;14.75;9.43;;;;;;;4.00;100.00;99600.94;4980234;28;20312;-64
2022/12/20 08:11:32;;;;;;;13.43;8.52;;;;;;;4.27;100.00;99652.75;4958246;28;20030;-63
2022/12/20 08:13:58;;;;;;;16.15;8.88;;;;;;;4.23;100.00;99644.34;4961572;28;20066;-63
2022/12/20 08:16:24;;;;;;;12.20;8.73;;;;;;;4.32;100.00;99637.88;4984997;28;20523;-63
2022/12/20 08:18:49;;;;;;;15.98;8.93;;;;;;;4.29;100.00;99638.06;4976704;28;20604;-61
2022/12/20 08:21:15;;;;;;;13.00;8.77;;;;;;;4.33;100.00;99641.31;5008692;28;20019;-62
2022/12/20 08:23:40;;;;;;;11.02;7.07;;;;;;;4.40;100.00;99634.91;4976025;28;20049;-61
2022/12/20 08:26:06;;;;;;;9.85;6.10;;;;;;;4.47;100.00;99630.25;4980554;28;20023;-62
2022/12/20 08:28:32;;;;;;;10.73;6.43;;;;;;;4.46;100.00;99636.34;4996347;28;20080;-62
2022/12/20 08:31:02;;;;;;;9.85;5.90;;;;;;;4.50;100.00;99633.50;4983493;28;20101;-63
2022/12/20 08:33:27;;;;;;;10.10;6.20;;;;;;;4.44;100.00;99623.53;4973719;28;20104;-61
2022/12/20 08:36:01;;;;;;;10.10;6.13;;;;;;;4.42;100.00;99610.72;4997447;28;20482;-62
2022/12/20 08:38:31;;;;;;;8.05;5.20;;;;;;;4.48;100.00;99629.34;4963766;28;20036;-64
2022/12/20 08:41:12;;;;;;;8.98;5.50;;;;;;;4.51;100.00;99619.72;4997059;28;20038;-63
2022/12/20 08:43:38;;;;;;;11.35;5.63;;;;;;;4.46;100.00;99632.00;4959927;28;20059;-64
2022/12/20 08:46:04;;;;;;;10.07;5.85;;;;;;;4.31;100.00;99599.31;4960736;28;20035;-63
2022/12/20 08:48:30;;;;;;;9.10;5.75;;;;;;;4.49;100.00;99626.72;4968267;28;20030;-60
2022/12/20 08:50:57;;;;;;;9.05;5.55;;;;;;;4.55;100.00;99625.53;4991666;28;20030;-61
2022/12/20 08:53:23;;;;;;;9.10;5.43;;;;;;;4.14;100.00;99546.97;4981044;28;20097;-62
2022/12/20 08:55:49;;;;;;;10.00;5.38;;;;;;;4.66;100.00;99625.78;4983919;28;20034;-64
2022/12/20 08:58:15;;;;;;;9.05;5.53;;;;;;;4.65;100.00;99629.28;5000137;28;20049;-65
2022/12/20 09:00:40;;;;;;;9.70;5.20;;;;;;;4.72;100.00;99630.59;4979848;28;20031;-63
2022/12/20 09:03:07;;;;;;;9.25;5.55;;;;;;;4.72;100.00;99617.72;4999871;28;20030;-60
2022/12/20 09:05:32;;;;;;;9.20;5.57;;;;;;;4.60;100.00;99579.78;4962774;28;20110;-61
2022/12/20 09:07:58;;;;;;;9.45;6.10;;;;;;;4.78;100.00;99619.13;4979668;28;20040;-64
2022/12/20 09:10:23;;;;;;;9.85;5.20;;;;;;;4.77;100.00;99620.06;4965342;28;20041;-63
2022/12/20 09:12:49;;;;;;;9.43;5.75;;;;;;;4.91;100.00;99621.88;4974121;28;20242;-64
2022/12/20 09:15:14;;;;;;;8.60;5.45;;;;;;;4.78;100.00;99629.44;4999267;28;20037;-64
2022/12/20 09:17:40;;;;;;;9.55;5.68;;;;;;;4.87;100.00;99628.94;5012684;28;20042;-64
2022/12/20 09:20:06;;;;;;;9.40;5.93;;;;;;;4.91;100.00;99625.31;4960370;28;20022;-63
2022/12/20 09:22:31;;;;;;;9.40;5.65;;;;;;;4.96;100.00;99635.34;4976533;28;20061;-63
2022/12/20 09:24:57;;;;;;;9.32;5.82;;;;;;;4.87;100.00;99621.22;5012289;28;20105;-64
2022/12/20 09:27:23;;;;;;;8.35;5.15;;;;;;;4.82;100.00;99611.16;4964949;28;20042;-63
2022/12/20 09:29:48;;;;;;;9.88;5.82;;;;;;;4.81;100.00;99619.81;4971179;28;20588;-65
2022/12/20 09:32:13;;;;;;;10.05;6.18;;;;;;;4.92;100.00;99628.72;4979153;28;20110;-64
2022/12/20 09:34:39;;;;;;;9.70;6.13;;;;;;;4.90;100.00;99631.38;4974917;28;20623;-62
2022/12/20 09:37:04;;;;;;;10.82;6.28;;;;;;;4.95;100.00;99628.56;4987717;28;20561;-65
2022/12/20 09:39:30;;;;;;;11.05;5.88;;;;;;;4.95;100.00;99628.56;4973163;28;20038;-64
2022/12/20 09:41:56;;;;;;;9.60;6.38;;;;;;;5.05;100.00;99632.25;4981682;28;20037;-64
2022/12/20 09:44:30;;;;;;;10.18;5.53;;;;;;;4.98;100.00;99629.22;5008551;28;20058;-64
2022/12/20 09:47:04;;;;;;;9.52;5.68;;;;;;;5.01;100.00;99633.34;4981415;28;20030;-63
2022/12/20 09:49:33;;;;;;;11.00;6.22;;;;;;;5.04;99.84;99624.63;4984939;28;20033;-63
2022/12/20 09:52:14;;;;;;;11.53;6.37;;;;;;;4.99;99.60;99612.81;4969567;28;20035;-63
2022/12/20 09:55:05;;;;;;;10.18;5.95;;;;;;;5.01;99.60;99610.97;4977106;28;20557;-64
2022/12/20 09:57:58;;;;;;;9.68;6.50;;;;;;;5.02;100.00;99609.25;4981596;28;20053;-63
2022/12/20 10:00:24;;;;;;;11.43;6.18;;;;;;;4.94;100.00;99613.97;4995927;28;20032;-64
2022/12/20 10:02:50;;;;;;;10.55;6.05;;;;;;;5.00;99.75;99614.50;4976376;28;20039;-63
2022/12/20 10:05:24;;;;;;;9.70;5.72;;;;;;;5.12;99.60;99612.97;5002101;28;20034;-63
2022/12/20 10:08:02;;;;;;;10.65;6.47;;;;;;;5.10;99.35;99609.66;4978443;28;20035;-66
2022/12/20 10:10:58;;;;;;;9.70;6.07;;;;;;;5.07;99.35;99594.34;4987105;28;20042;-63
2022/12/20 10:13:39;;;;;;;9.55;5.90;;;;;;;5.17;99.74;99597.25;4962101;28;20038;-65
2022/12/20 10:16:29;;;;;;;11.48;6.30;;;;;;;5.16;98.32;99596.41;4991470;28;20096;-65
2022/12/20 10:19:03;;;;;;;9.82;5.88;;;;;;;5.25;98.60;99591.66;4974682;28;20041;-64
2022/12/20 10:21:48;;;;;;;10.10;5.65;;;;;;;5.19;98.49;99585.91;4974935;28;20121;-65
2022/12/20 10:24:17;;;;;;;9.57;6.20;;;;;;;5.23;99.58;99586.59;4975832;28;20093;-66
2022/12/20 10:26:43;;;;;;;;;;;;;;;5.26;100.00;99591.56;4974695;28;20034;-65
2022/12/20 10:29:08;;;;;;;10.05;5.97;;;;;;;5.27;98.37;99590.63;4971681;28;19914;-66
2022/12/20 10:31:34;;;;;;;9.55;5.82;;;;;;;5.29;99.15;99595.72;4974944;28;20026;-65
2022/12/20 10:34:00;;;;;;;10.10;5.85;;;;;;;5.38;98.37;99587.44;4974973;28;20506;-65
2022/12/20 10:36:25;;;;;;;9.82;6.60;;;;;;;5.33;97.48;99589.47;4958788;28;20026;-65
2022/12/20 10:39:05;;;;;;;11.93;7.05;;;;;;;5.42;97.68;99588.97;4975839;28;20044;-64
2022/12/20 10:41:41;;;;;;;9.20;5.85;;;;;;;5.43;97.69;99588.03;4989882;28;20057;-64
2022/12/20 10:44:26;;;;;;;9.40;5.70;;;;;;;5.47;97.16;99586.91;4972663;28;20038;-65
2022/12/20 10:46:57;;;;;;;8.85;5.43;;;;;;;5.45;96.12;99578.44;4965975;28;20033;-64
2022/12/20 10:49:36;;;;;;;9.30;6.20;;;;;;;5.52;96.87;99555.72;4965803;28;20348;-66
2022/12/20 10:52:11;;;;;;;10.05;5.72;;;;;;;5.52;96.60;99550.56;4965674;28;20040;-66
2022/12/20 10:54:38;;;;;;;10.25;6.38;;;;;;;4.67;96.49;99418.75;4966979;28;20034;-65
2022/12/20 10:57:16;;;;;;;9.57;5.95;;;;;;;5.21;96.30;99516.22;4989798;28;20509;-66
2022/12/20 10:59:43;;;;;;;9.20;5.82;;;;;;;5.50;97.19;99553.22;4974200;28;20034;-65
2022/12/20 11:02:37;;;;;;;9.15;5.80;;;;;;;5.57;96.85;99553.69;4954746;28;20030;-65
2022/12/20 11:05:11;;;;;;;9.73;6.28;;;;;;;5.51;97.57;99531.69;4970207;28;20042;-63
2022/12/20 11:07:56;;;;;;;10.85;6.80;;;;;;;5.49;98.17;99497.38;4975483;28;20294;-65
2022/12/20 11:10:25;;;;;;;10.07;6.30;;;;;;;5.49;97.54;99489.63;4954705;28;20038;-64
2022/12/20 11:12:53;;;;;;;9.73;6.20;;;;;;;5.83;98.10;99536.66;4989417;28;20034;-65
2022/12/20 11:15:22;;;;;;;10.27;6.32;;;;;;;5.88;97.36;99526.09;4972693;28;20038;-64
2022/12/20 11:17:50;;;;;;;11.45;5.72;;;;;;;5.86;94.58;99521.00;4989342;28;20094;-65
2022/12/20 11:20:25;;;;;;;9.38;5.72;;;;;;;5.94;94.41;99536.03;5003437;28;20034;-65
2022/12/20 11:22:59;;;;;;;9.93;6.82;;;;;;;5.81;95.44;99542.84;4973430;28;20639;-64
2022/12/20 11:25:45;;;;;;;9.57;5.55;;;;;;;5.78;94.53;99542.09;4973732;28;20058;-64
2022/12/20 11:28:23;;;;;;;9.60;6.05;;;;;;;5.68;93.99;99527.28;4975171;28;20113;-64
2022/12/20 11:31:07;;;;;;;9.88;5.55;;;;;;;5.72;95.36;99539.06;4972517;28;20042;-65
2022/12/20 11:34:00;;;;;;;10.25;6.28;;;;;;;5.30;95.13;99458.13;4970214;28;20037;-64
2022/12/20 11:36:37;;;;;;;9.55;5.65;;;;;;;5.62;95.15;99497.47;4973912;28;20118;-63
2022/12/20 11:39:21;;;;;;;11.63;6.05;;;;;;;5.47;95.01;99462.28;4972032;28;20022;-64
2022/12/20 11:41:54;;;;;;;10.43;5.75;;;;;;;5.77;95.75;99493.16;4986860;28;20034;-64
2022/12/20 11:44:31;;;;;;;10.85;6.60;;;;;;;5.85;94.77;99490.94;4972941;28;20030;-64